EGLC/LCY METAR and TAF weather

Enter ICAO airport designator
Station Type Date Time Source
EGLC METAR 2019/04/26 03:50 UTC NOAA

EGLC 260350Z AUTO VRB03KT 9999 FEW015 09/07 Q1007


Station Type Date Time Source
EGLC Decoded METAR 2019/04/26 03:50 UTC NOAA

London City Airport, United Kingdom (EGLC) 51-30N 000-30W
Apr 25, 2019 - 11:50 PM EDT / 2019.04.26 0350 UTC
Wind: Variable at 3 MPH (3 KT):0
Visibility: greater than 7 mile(s):0
Sky conditions: mostly clear
Temperature: 48 F (9 C)
Dew Point: 44 F (7 C)
Relative Humidity: 87%
Pressure (altimeter): 29.74 in. Hg (1007 hPa)
ob: EGLC 260350Z AUTO VRB03KT 9999 FEW015 09/07 Q1007
cycle: 4

Station Type Date Time Source
EGLC TAF 2018/10/15 21:30 UTC NOAA

TAF EGLC 152119Z 1521/1621 CNL

Example: see airport list